createdAt,value
2018-12-09T00:00:59.314Z,927.97
2018-12-09T00:01:59.213Z,928.11
2018-12-09T00:02:59.114Z,928.07
2018-12-09T00:03:59.030Z,928.03
2018-12-09T00:04:58.913Z,928.00
2018-12-09T00:05:58.814Z,927.92
2018-12-09T00:06:58.715Z,927.93
2018-12-09T00:07:58.614Z,927.92
2018-12-09T00:08:58.528Z,927.88
2018-12-09T00:09:58.410Z,927.79
2018-12-09T00:10:58.325Z,927.77
2018-12-09T00:11:58.331Z,927.73
2018-12-09T00:12:58.111Z,927.74
2018-12-09T00:13:58.027Z,927.61
2018-12-09T00:14:57.913Z,927.61
2018-12-09T00:15:57.813Z,927.46
2018-12-09T00:16:57.714Z,927.36
2018-12-09T00:17:57.615Z,927.48
2018-12-09T00:18:57.632Z,927.56
2018-12-09T00:19:57.482Z,927.48
2018-12-09T00:20:57.310Z,927.41
2018-12-09T00:21:57.214Z,927.40
2018-12-09T00:22:57.115Z,927.42
2018-12-09T00:23:57.028Z,927.31
2018-12-09T00:24:56.912Z,927.27
2018-12-09T00:25:56.917Z,927.24
2018-12-09T00:26:56.709Z,927.11
2018-12-09T00:27:56.671Z,926.98
2018-12-09T00:28:56.529Z,926.94
2018-12-09T00:29:56.414Z,926.96
2018-12-09T00:30:56.312Z,926.93
2018-12-09T00:31:56.214Z,926.92
2018-12-09T00:32:56.220Z,926.83
2018-12-09T00:33:56.031Z,926.76
2018-12-09T00:34:55.912Z,926.71
2018-12-09T00:35:55.816Z,926.68
2018-12-09T00:36:55.712Z,926.78
2018-12-09T00:37:55.619Z,926.74
2018-12-09T00:38:55.535Z,926.66
2018-12-09T00:39:55.536Z,926.66
2018-12-09T00:40:55.315Z,926.62
2018-12-09T00:41:55.217Z,926.74
2018-12-09T00:42:55.113Z,926.83
2018-12-09T00:43:55.036Z,926.83
2018-12-09T00:44:54.916Z,926.78
2018-12-09T00:45:54.816Z,926.82
2018-12-09T00:46:54.825Z,926.76
2018-12-09T00:47:54.615Z,926.71
2018-12-09T00:48:54.518Z,926.83
2018-12-09T00:49:54.429Z,926.70
2018-12-09T00:50:54.320Z,926.76
2018-12-09T00:51:54.219Z,926.72
2018-12-09T00:52:54.118Z,926.78
2018-12-09T00:53:54.122Z,926.75
2018-12-09T00:54:53.935Z,926.62
2018-12-09T00:55:53.888Z,926.66
2018-12-09T00:56:53.713Z,926.61
2018-12-09T00:57:53.632Z,926.65
2018-12-09T00:58:53.520Z,926.63
2018-12-09T00:59:53.434Z,926.66
2018-12-09T01:00:53.314Z,926.59
2018-12-09T01:01:53.223Z,926.52
2018-12-09T01:02:53.120Z,926.51
2018-12-09T01:03:53.024Z,926.56
2018-12-09T01:04:52.933Z,926.49
2018-12-09T01:05:52.817Z,926.43
2018-12-09T01:06:52.720Z,926.44
2018-12-09T01:07:52.623Z,926.35
2018-12-09T01:08:52.793Z,926.41
2018-12-09T01:09:52.434Z,926.35
2018-12-09T01:10:52.316Z,926.28
2018-12-09T01:11:52.218Z,926.26
2018-12-09T01:12:52.118Z,926.28
2018-12-09T01:13:52.017Z,926.35
2018-12-09T01:14:51.936Z,926.16
2018-12-09T01:15:51.917Z,926.14
2018-12-09T01:16:51.724Z,926.11
2018-12-09T01:17:51.621Z,926.17
2018-12-09T01:18:51.518Z,926.03
2018-12-09T01:19:51.511Z,926.10
2018-12-09T01:20:51.318Z,926.08
2018-12-09T01:21:51.220Z,926.07
2018-12-09T01:22:51.116Z,925.79
2018-12-09T01:23:51.016Z,925.96
2018-12-09T01:24:50.938Z,925.89
2018-12-09T01:25:50.819Z,925.90
2018-12-09T01:26:50.732Z,925.90
2018-12-09T01:27:50.618Z,925.87
2018-12-09T01:28:50.519Z,925.74
2018-12-09T01:29:50.537Z,925.79
2018-12-09T01:30:50.322Z,925.82
2018-12-09T01:31:50.219Z,925.76
2018-12-09T01:32:50.122Z,925.69
2018-12-09T01:33:50.021Z,925.66
2018-12-09T01:34:49.933Z,925.67
2018-12-09T01:35:49.818Z,925.69
2018-12-09T01:36:49.836Z,925.66
2018-12-09T01:37:49.621Z,925.55
2018-12-09T01:38:49.523Z,925.57
2018-12-09T01:39:49.436Z,925.51
2018-12-09T01:40:49.321Z,925.53
2018-12-09T01:41:49.221Z,925.49
2018-12-09T01:42:49.244Z,925.56
2018-12-09T01:43:49.020Z,925.51
2018-12-09T01:44:48.937Z,925.50
2018-12-09T01:45:48.822Z,925.57
2018-12-09T01:46:48.719Z,925.56
2018-12-09T01:47:48.618Z,925.52
2018-12-09T01:48:48.519Z,925.47
2018-12-09T01:49:48.437Z,925.39
2018-12-09T01:50:48.320Z,925.48
2018-12-09T01:51:48.225Z,925.48
2018-12-09T01:52:48.123Z,925.42
2018-12-09T01:53:48.025Z,925.39
2018-12-09T01:54:47.937Z,925.46
2018-12-09T01:55:47.830Z,925.44
2018-12-09T01:56:47.720Z,925.41
2018-12-09T01:57:47.622Z,925.39
2018-12-09T01:58:47.524Z,925.31
2018-12-09T01:59:47.440Z,925.36
2018-12-09T02:00:47.337Z,925.37
2018-12-09T02:01:47.222Z,925.35
2018-12-09T02:02:47.125Z,925.32
2018-12-09T02:03:47.019Z,925.35
2018-12-09T02:04:46.949Z,925.26
2018-12-09T02:05:46.889Z,925.28
2018-12-09T02:06:46.728Z,925.24
2018-12-09T02:07:46.621Z,925.12
2018-12-09T02:08:46.527Z,925.25
2018-12-09T02:09:46.441Z,925.28
2018-12-09T02:10:46.323Z,925.23
2018-12-09T02:11:46.227Z,925.25
2018-12-09T02:12:46.124Z,925.12
2018-12-09T02:13:46.026Z,925.09
2018-12-09T02:14:45.940Z,925.22
2018-12-09T02:15:45.823Z,925.10
2018-12-09T02:16:45.729Z,925.11
2018-12-09T02:17:45.626Z,925.12
2018-12-09T02:18:45.524Z,925.10
2018-12-09T02:19:45.440Z,925.09
2018-12-09T02:20:45.329Z,925.07
2018-12-09T02:21:45.223Z,925.09
2018-12-09T02:22:45.127Z,924.95
2018-12-09T02:23:45.026Z,925.07
2018-12-09T02:24:44.941Z,925.01
2018-12-09T02:25:44.831Z,925.03
2018-12-09T02:26:44.730Z,924.98
2018-12-09T02:27:44.629Z,925.00
2018-12-09T02:28:44.529Z,924.97
2018-12-09T02:29:44.432Z,924.93
2018-12-09T02:30:44.345Z,924.93
2018-12-09T02:31:44.237Z,924.95
2018-12-09T02:32:44.134Z,924.88
2018-12-09T02:33:44.028Z,924.94
2018-12-09T02:34:43.930Z,924.79
2018-12-09T02:35:43.844Z,924.88
2018-12-09T02:36:43.729Z,925.01
2018-12-09T02:37:43.634Z,924.91
2018-12-09T02:38:43.533Z,924.99
2018-12-09T02:39:43.433Z,924.92
2018-12-09T02:40:43.354Z,924.96
2018-12-09T02:41:43.232Z,925.00
2018-12-09T02:42:43.142Z,925.04
2018-12-09T02:43:43.031Z,925.00
2018-12-09T02:44:42.933Z,924.95
2018-12-09T02:45:42.853Z,924.90
2018-12-09T02:46:42.736Z,924.93
2018-12-09T02:47:42.637Z,924.91
2018-12-09T02:48:42.539Z,924.73
2018-12-09T02:49:42.440Z,924.68
2018-12-09T02:50:42.351Z,924.63
2018-12-09T02:51:42.236Z,924.72
2018-12-09T02:52:42.138Z,924.51
2018-12-09T02:53:42.038Z,924.58
2018-12-09T02:54:41.936Z,924.63
2018-12-09T02:55:41.856Z,924.53
2018-12-09T02:56:41.739Z,924.58
2018-12-09T02:57:41.640Z,924.41
2018-12-09T02:58:41.537Z,924.45
2018-12-09T02:59:41.540Z,924.48
2018-12-09T03:00:41.417Z,924.47
2018-12-09T03:01:41.243Z,924.43
2018-12-09T03:02:41.142Z,924.47
2018-12-09T03:03:41.044Z,924.51
2018-12-09T03:04:40.942Z,924.48
2018-12-09T03:05:40.864Z,924.56
2018-12-09T03:06:40.744Z,924.54
2018-12-09T03:07:40.645Z,924.54
2018-12-09T03:08:40.544Z,924.63
2018-12-09T03:09:40.443Z,924.51
2018-12-09T03:10:40.361Z,924.54
2018-12-09T03:11:40.243Z,924.45
2018-12-09T03:12:41.497Z,924.61
2018-12-09T03:13:40.160Z,924.55
2018-12-09T03:14:39.947Z,924.54
2018-12-09T03:15:39.867Z,924.59
2018-12-09T03:16:39.746Z,924.68
2018-12-09T03:17:39.647Z,924.77
2018-12-09T03:18:39.548Z,924.58
2018-12-09T03:19:39.450Z,924.50
2018-12-09T03:20:39.481Z,924.41
2018-12-09T03:21:39.254Z,924.67
2018-12-09T03:22:39.155Z,924.52
2018-12-09T03:23:39.062Z,924.67
2018-12-09T03:24:38.955Z,924.47
2018-12-09T03:25:38.879Z,924.53
2018-12-09T03:26:38.754Z,924.48
2018-12-09T03:27:38.818Z,924.61
2018-12-09T03:28:38.553Z,924.62
2018-12-09T03:29:38.454Z,924.64
2018-12-09T03:30:38.374Z,924.52
2018-12-09T03:31:38.257Z,924.60
2018-12-09T03:32:38.161Z,924.71
2018-12-09T03:33:38.057Z,924.53
2018-12-09T03:34:38.065Z,924.66
2018-12-09T03:35:37.876Z,924.63
2018-12-09T03:36:37.756Z,924.55
2018-12-09T03:37:37.656Z,924.65
2018-12-09T03:38:37.562Z,924.52
2018-12-09T03:39:37.465Z,924.57
2018-12-09T03:40:37.379Z,924.49
2018-12-09T03:41:37.374Z,924.50
2018-12-09T03:42:37.159Z,924.48
2018-12-09T03:43:37.064Z,924.52
2018-12-09T03:44:36.962Z,924.53
2018-12-09T03:45:36.884Z,924.58
2018-12-09T03:46:36.765Z,924.51
2018-12-09T03:47:36.667Z,924.49
2018-12-09T03:48:36.677Z,924.43
2018-12-09T03:49:36.465Z,924.51
2018-12-09T03:50:36.384Z,924.43
2018-12-09T03:51:36.265Z,924.36
2018-12-09T03:52:36.167Z,924.40
2018-12-09T03:53:36.073Z,924.41
2018-12-09T03:54:35.967Z,924.34
2018-12-09T03:55:35.987Z,924.46
2018-12-09T03:56:35.776Z,924.50
2018-12-09T03:57:35.673Z,924.36
2018-12-09T03:58:35.569Z,924.37
2018-12-09T03:59:35.471Z,924.37
2018-12-09T04:00:35.403Z,924.20
2018-12-09T04:01:35.272Z,924.38
2018-12-09T04:02:35.273Z,924.26
2018-12-09T04:03:35.071Z,924.19
2018-12-09T04:04:34.974Z,924.12
2018-12-09T04:05:34.895Z,924.25
2018-12-09T04:06:34.777Z,924.25
2018-12-09T04:07:34.672Z,924.34
2018-12-09T04:08:34.576Z,924.24
2018-12-09T04:09:34.593Z,924.29
2018-12-09T04:10:38.462Z,924.32
2018-12-09T04:11:34.282Z,924.32
2018-12-09T04:12:34.176Z,924.17
2018-12-09T04:13:34.078Z,924.23
2018-12-09T04:14:33.982Z,924.27
2018-12-09T04:15:33.881Z,924.23
2018-12-09T04:16:33.800Z,924.37
2018-12-09T04:17:33.683Z,924.30
2018-12-09T04:18:33.583Z,924.25
2018-12-09T04:19:33.482Z,924.32
2018-12-09T04:20:33.385Z,924.29
2018-12-09T04:21:33.299Z,924.19
2018-12-09T04:22:33.185Z,924.29
2018-12-09T04:23:33.082Z,924.26
2018-12-09T04:24:32.984Z,924.30
2018-12-09T04:25:32.885Z,924.13
2018-12-09T04:26:32.803Z,924.34
2018-12-09T04:27:32.684Z,924.20
2018-12-09T04:28:32.583Z,924.14
2018-12-09T04:29:32.504Z,924.34
2018-12-09T04:30:32.387Z,924.19
2018-12-09T04:31:32.300Z,924.34
2018-12-09T04:32:32.188Z,924.28
2018-12-09T04:33:32.084Z,924.28
2018-12-09T04:34:31.989Z,924.17
2018-12-09T04:35:31.893Z,924.34
2018-12-09T04:36:31.807Z,924.36
2018-12-09T04:37:31.685Z,924.40
2018-12-09T04:38:31.589Z,924.42
2018-12-09T04:39:31.484Z,924.22
2018-12-09T04:40:31.391Z,924.27
2018-12-09T04:41:31.308Z,924.27
2018-12-09T04:42:31.194Z,924.29
2018-12-09T04:43:31.090Z,924.26
2018-12-09T04:44:30.988Z,924.18
2018-12-09T04:45:30.888Z,924.36
2018-12-09T04:46:30.809Z,924.30
2018-12-09T04:47:30.690Z,924.24
2018-12-09T04:48:30.591Z,924.26
2018-12-09T04:49:30.497Z,924.26
2018-12-09T04:50:30.395Z,924.26
2018-12-09T04:51:30.308Z,924.34
2018-12-09T04:52:30.193Z,924.18
2018-12-09T04:53:30.095Z,924.09
2018-12-09T04:54:29.993Z,924.36
2018-12-09T04:55:29.892Z,924.33
2018-12-09T04:56:29.811Z,924.41
2018-12-09T04:57:29.718Z,924.48
2018-12-09T04:58:29.594Z,924.46
2018-12-09T04:59:29.504Z,924.55
2018-12-09T05:00:29.399Z,924.49
2018-12-09T05:01:29.317Z,924.58
2018-12-09T05:02:29.197Z,924.65
2018-12-09T05:03:29.096Z,924.68
2018-12-09T05:04:28.995Z,924.67
2018-12-09T05:05:28.900Z,924.72
2018-12-09T05:06:28.815Z,924.59
2018-12-09T05:07:28.699Z,924.60
2018-12-09T05:08:28.596Z,924.60
2018-12-09T05:09:28.502Z,924.60
2018-12-09T05:10:28.398Z,924.65
2018-12-09T05:11:28.318Z,924.60
2018-12-09T05:12:28.201Z,924.53
2018-12-09T05:13:28.101Z,924.60
2018-12-09T05:14:27.998Z,924.50
2018-12-09T05:15:27.900Z,924.59
2018-12-09T05:16:27.818Z,924.64
2018-12-09T05:17:27.703Z,924.73
2018-12-09T05:18:27.599Z,924.74
2018-12-09T05:19:27.503Z,924.75
2018-12-09T05:20:27.403Z,924.76
2018-12-09T05:21:27.318Z,924.77
2018-12-09T05:22:27.199Z,924.66
2018-12-09T05:23:27.102Z,924.82
2018-12-09T05:24:27.000Z,924.83
2018-12-09T05:25:27.003Z,924.88
2018-12-09T05:26:26.824Z,924.80
2018-12-09T05:27:26.704Z,924.86
2018-12-09T05:28:26.605Z,924.90
2018-12-09T05:29:26.510Z,924.85
2018-12-09T05:30:26.401Z,924.94
2018-12-09T05:31:26.320Z,924.88
2018-12-09T05:32:26.303Z,924.92
2018-12-09T05:33:26.105Z,924.98
2018-12-09T05:34:26.005Z,924.90
2018-12-09T05:35:25.902Z,924.75
2018-12-09T05:36:25.823Z,924.89
2018-12-09T05:37:25.707Z,924.91
2018-12-09T05:38:25.607Z,924.95
2018-12-09T05:39:25.502Z,924.99
2018-12-09T05:40:25.410Z,924.96
2018-12-09T05:41:25.320Z,925.10
2018-12-09T05:42:25.209Z,925.00
2018-12-09T05:43:25.105Z,924.96
2018-12-09T05:44:25.091Z,925.01
2018-12-09T05:45:24.904Z,925.01
2018-12-09T05:46:24.925Z,924.96
2018-12-09T05:47:24.709Z,925.02
2018-12-09T05:48:24.608Z,925.00
2018-12-09T05:49:24.506Z,925.00
2018-12-09T05:50:24.406Z,925.04
2018-12-09T05:51:24.321Z,924.99
2018-12-09T05:52:24.208Z,925.06
2018-12-09T05:53:24.207Z,925.06
2018-12-09T05:54:24.009Z,925.10
2018-12-09T05:55:23.906Z,925.13
2018-12-09T05:56:23.824Z,925.16
2018-12-09T05:57:23.707Z,925.07
2018-12-09T05:58:23.610Z,924.96
2018-12-09T05:59:23.506Z,925.06
2018-12-09T06:00:23.516Z,925.02
2018-12-09T06:01:23.311Z,925.06
2018-12-09T06:02:23.279Z,925.10
2018-12-09T06:03:23.107Z,925.03
2018-12-09T06:04:23.011Z,925.07
2018-12-09T06:05:22.909Z,925.09
2018-12-09T06:06:22.813Z,925.06
2018-12-09T06:07:22.827Z,925.10
2018-12-09T06:08:22.611Z,925.12
2018-12-09T06:09:22.512Z,925.13
2018-12-09T06:10:22.416Z,925.20
2018-12-09T06:11:22.311Z,925.17
2018-12-09T06:12:22.229Z,925.24
2018-12-09T06:13:22.113Z,925.23
2018-12-09T06:14:22.011Z,925.28
2018-12-09T06:15:21.913Z,925.25
2018-12-09T06:16:21.812Z,925.30
2018-12-09T06:17:21.728Z,925.18
2018-12-09T06:18:21.611Z,925.34
2018-12-09T06:19:21.512Z,925.31
2018-12-09T06:20:21.413Z,925.35
2018-12-09T06:21:21.316Z,925.36
2018-12-09T06:22:21.228Z,925.34
2018-12-09T06:23:21.111Z,925.42
2018-12-09T06:24:21.023Z,925.43
2018-12-09T06:25:20.918Z,925.44
2018-12-09T06:26:20.816Z,925.44
2018-12-09T06:27:20.729Z,925.40
2018-12-09T06:28:20.616Z,925.40
2018-12-09T06:29:20.815Z,925.39
2018-12-09T06:30:20.416Z,925.41
2018-12-09T06:31:20.314Z,925.37
2018-12-09T06:32:20.235Z,925.38
2018-12-09T06:33:20.122Z,925.42
2018-12-09T06:34:20.019Z,925.43
2018-12-09T06:35:19.915Z,925.41
2018-12-09T06:36:19.920Z,925.46
2018-12-09T06:37:19.736Z,925.51
2018-12-09T06:38:19.617Z,925.53
2018-12-09T06:39:19.523Z,925.49
2018-12-09T06:40:19.416Z,925.55
2018-12-09T06:41:19.317Z,925.45
2018-12-09T06:42:19.237Z,925.52
2018-12-09T06:43:19.225Z,925.55
2018-12-09T06:44:19.017Z,925.60
2018-12-09T06:45:18.923Z,925.58
2018-12-09T06:46:18.821Z,925.70
2018-12-09T06:47:18.733Z,925.62
2018-12-09T06:48:18.618Z,925.69
2018-12-09T06:49:18.530Z,925.65
2018-12-09T06:50:18.521Z,925.72
2018-12-09T06:51:18.320Z,925.71
2018-12-09T06:52:18.236Z,925.64
2018-12-09T06:53:18.123Z,925.59
2018-12-09T06:54:18.020Z,925.58
2018-12-09T06:55:17.920Z,925.73
2018-12-09T06:56:17.822Z,925.80
2018-12-09T06:57:17.840Z,925.82
2018-12-09T06:58:17.623Z,925.65
2018-12-09T06:59:17.524Z,925.77
2018-12-09T07:00:17.420Z,925.74
2018-12-09T07:01:17.321Z,925.81
2018-12-09T07:02:17.245Z,925.86
2018-12-09T07:03:17.121Z,925.91
2018-12-09T07:04:17.130Z,925.92
2018-12-09T07:05:16.923Z,925.81
2018-12-09T07:06:16.826Z,925.84
2018-12-09T07:07:16.745Z,925.94
2018-12-09T07:08:16.623Z,925.85
2018-12-09T07:09:16.521Z,925.91
2018-12-09T07:10:16.425Z,925.92
2018-12-09T07:11:16.324Z,925.80
2018-12-09T07:12:16.238Z,925.88
2018-12-09T07:13:16.123Z,925.96
2018-12-09T07:14:16.026Z,925.94
2018-12-09T07:15:15.926Z,926.05
2018-12-09T07:16:15.823Z,926.10
2018-12-09T07:17:15.745Z,925.96
2018-12-09T07:18:15.629Z,926.05
2018-12-09T07:19:15.523Z,926.03
2018-12-09T07:20:15.430Z,926.05
2018-12-09T07:21:15.327Z,926.08
2018-12-09T07:22:15.246Z,926.03
2018-12-09T07:23:15.127Z,926.13
2018-12-09T07:24:15.027Z,926.03
2018-12-09T07:25:14.929Z,926.13
2018-12-09T07:26:14.827Z,926.18
2018-12-09T07:27:14.741Z,926.21
2018-12-09T07:28:14.626Z,926.12
2018-12-09T07:29:14.527Z,926.22
2018-12-09T07:30:14.428Z,926.23
2018-12-09T07:31:14.331Z,926.24
2018-12-09T07:32:14.243Z,926.29
2018-12-09T07:33:14.127Z,926.37
2018-12-09T07:34:14.035Z,926.26
2018-12-09T07:35:13.932Z,926.26
2018-12-09T07:36:13.868Z,926.27
2018-12-09T07:37:13.747Z,926.26
2018-12-09T07:38:13.631Z,926.32
2018-12-09T07:39:13.531Z,926.30
2018-12-09T07:40:13.429Z,926.19
2018-12-09T07:41:13.332Z,926.28
2018-12-09T07:42:13.246Z,926.35
2018-12-09T07:43:13.132Z,926.33
2018-12-09T07:44:13.038Z,926.39
2018-12-09T07:45:12.933Z,926.25
2018-12-09T07:46:15.183Z,926.30
2018-12-09T07:47:12.750Z,926.31
2018-12-09T07:48:12.632Z,926.46
2018-12-09T07:49:12.536Z,926.39
2018-12-09T07:50:12.435Z,926.39
2018-12-09T07:51:12.331Z,926.45
2018-12-09T07:52:12.237Z,926.47
2018-12-09T07:53:12.149Z,926.54
2018-12-09T07:54:12.037Z,926.43
2018-12-09T07:55:11.933Z,926.44
2018-12-09T07:56:11.837Z,926.55
2018-12-09T07:57:11.740Z,926.55
2018-12-09T07:58:11.653Z,926.50
2018-12-09T07:59:11.656Z,926.38
2018-12-09T08:00:11.434Z,926.51
2018-12-09T08:01:11.335Z,926.60
2018-12-09T08:02:11.240Z,926.50
2018-12-09T08:03:11.151Z,926.57
2018-12-09T08:04:11.036Z,926.59
2018-12-09T08:05:10.936Z,926.62
2018-12-09T08:06:10.938Z,926.56
2018-12-09T08:07:10.738Z,926.52
2018-12-09T08:08:10.656Z,926.58
2018-12-09T08:09:10.539Z,926.66
2018-12-09T08:10:10.441Z,926.67
2018-12-09T08:11:10.343Z,926.64
2018-12-09T08:12:10.238Z,926.64
2018-12-09T08:13:10.260Z,926.59
2018-12-09T08:14:10.045Z,926.65
2018-12-09T08:15:09.941Z,926.69
2018-12-09T08:16:09.844Z,926.72
2018-12-09T08:17:09.746Z,926.68
2018-12-09T08:18:09.656Z,926.70
2018-12-09T08:19:09.543Z,926.77
2018-12-09T08:20:09.544Z,926.76
2018-12-09T08:21:09.342Z,926.78
2018-12-09T08:22:09.253Z,926.72
2018-12-09T08:23:09.156Z,926.80
2018-12-09T08:24:09.696Z,926.81
2018-12-09T08:25:08.945Z,926.81
2018-12-09T08:26:08.844Z,926.69
2018-12-09T08:27:08.852Z,926.76
2018-12-09T08:28:08.665Z,926.81
2018-12-09T08:29:08.543Z,926.86
2018-12-09T08:30:08.445Z,926.86
2018-12-09T08:31:08.344Z,926.93
2018-12-09T08:32:08.250Z,926.89
2018-12-09T08:33:08.164Z,926.86
2018-12-09T08:34:08.151Z,926.92
2018-12-09T08:35:07.952Z,926.93
2018-12-09T08:36:07.849Z,926.86
2018-12-09T08:37:07.752Z,926.88
2018-12-09T08:38:07.666Z,926.92
2018-12-09T08:39:07.551Z,926.91
2018-12-09T08:40:07.451Z,927.00
2018-12-09T08:41:07.457Z,926.99
2018-12-09T08:42:07.250Z,927.01
2018-12-09T08:43:07.171Z,927.01
2018-12-09T08:44:07.707Z,927.00
2018-12-09T08:45:06.954Z,927.10
2018-12-09T08:46:06.856Z,927.18
2018-12-09T08:47:06.751Z,927.05
2018-12-09T08:48:06.774Z,927.16
2018-12-09T08:49:06.554Z,927.21
2018-12-09T08:50:06.460Z,927.20
2018-12-09T08:51:06.354Z,927.07
2018-12-09T08:52:06.258Z,927.09
2018-12-09T08:53:06.172Z,927.10
2018-12-09T08:54:06.162Z,927.18
2018-12-09T08:55:05.960Z,927.22
2018-12-09T08:56:05.859Z,927.20
2018-12-09T08:57:05.766Z,927.09
2018-12-09T08:58:05.687Z,927.18
2018-12-09T08:59:05.798Z,927.21
2018-12-09T09:00:05.463Z,927.21
2018-12-09T09:01:05.391Z,927.22
2018-12-09T09:02:05.367Z,927.28
2018-12-09T09:03:05.183Z,927.31
2018-12-09T09:04:05.064Z,927.23
2018-12-09T09:05:04.964Z,927.19
2018-12-09T09:06:04.870Z,927.38
2018-12-09T09:07:04.768Z,927.30
2018-12-09T09:08:04.686Z,927.24
2018-12-09T09:09:04.623Z,927.27
2018-12-09T09:10:04.470Z,927.34
2018-12-09T09:11:04.373Z,927.29
2018-12-09T09:12:04.271Z,927.24
2018-12-09T09:13:04.188Z,927.31
2018-12-09T09:14:04.077Z,927.33
2018-12-09T09:15:03.976Z,927.37
2018-12-09T09:16:03.875Z,927.41
2018-12-09T09:17:03.777Z,927.39
2018-12-09T09:18:03.691Z,927.54
2018-12-09T09:19:03.576Z,927.51
2018-12-09T09:20:03.480Z,927.45
2018-12-09T09:21:03.485Z,927.46
2018-12-09T09:22:03.278Z,927.50
2018-12-09T09:23:03.200Z,927.50
2018-12-09T09:24:03.082Z,927.53
2018-12-09T09:25:02.983Z,927.49
2018-12-09T09:26:02.882Z,927.58
2018-12-09T09:27:02.784Z,927.56
2018-12-09T09:28:02.701Z,927.60
2018-12-09T09:29:02.589Z,927.57
2018-12-09T09:30:02.491Z,927.58
2018-12-09T09:31:02.386Z,927.62
2018-12-09T09:32:02.289Z,927.47
2018-12-09T09:33:02.207Z,927.61
2018-12-09T09:34:02.089Z,927.62
2018-12-09T09:35:01.989Z,927.54
2018-12-09T09:36:01.891Z,927.55
2018-12-09T09:37:01.792Z,927.56
2018-12-09T09:38:01.724Z,927.55
2018-12-09T09:39:01.612Z,927.41
2018-12-09T09:40:01.500Z,927.56
2018-12-09T09:41:01.503Z,927.59
2018-12-09T09:42:01.301Z,927.37
2018-12-09T09:43:01.200Z,927.48
2018-12-09T09:44:01.211Z,927.54
2018-12-09T09:45:01.002Z,927.54
2018-12-09T09:46:00.901Z,927.37
2018-12-09T09:47:00.798Z,927.62
2018-12-09T09:48:00.815Z,927.54
2018-12-09T09:49:00.616Z,927.55
2018-12-09T09:50:00.503Z,927.58
2018-12-09T09:51:00.406Z,927.54
2018-12-09T09:52:00.301Z,927.50
2018-12-09T09:53:00.275Z,927.31
2018-12-09T09:54:00.230Z,927.56
2018-12-09T09:55:00.009Z,927.55
2018-12-09T09:55:59.905Z,927.51
2018-12-09T09:56:59.812Z,927.63
2018-12-09T09:57:59.712Z,927.57
2018-12-09T09:58:59.626Z,927.56
2018-12-09T09:59:59.508Z,927.45
2018-12-09T10:00:59.410Z,927.57
2018-12-09T10:01:59.313Z,927.64
2018-12-09T10:02:59.209Z,927.73
2018-12-09T10:03:59.128Z,927.45
2018-12-09T10:04:59.013Z,927.66
2018-12-09T10:05:59.018Z,927.50
2018-12-09T10:06:58.816Z,927.67
2018-12-09T10:07:58.715Z,927.56
2018-12-09T10:08:58.630Z,927.61
2018-12-09T10:09:58.518Z,927.73
2018-12-09T10:10:58.418Z,927.67
2018-12-09T10:11:58.315Z,927.69
2018-12-09T10:12:58.215Z,927.70
2018-12-09T10:13:58.138Z,927.69
2018-12-09T10:14:58.023Z,927.75
2018-12-09T10:15:57.918Z,927.69
2018-12-09T10:16:57.819Z,927.63
2018-12-09T10:17:57.724Z,927.68
2018-12-09T10:18:57.642Z,927.68
2018-12-09T10:19:57.520Z,927.68
2018-12-09T10:20:57.423Z,927.66
2018-12-09T10:21:57.322Z,927.62
2018-12-09T10:22:57.225Z,927.64
2018-12-09T10:23:57.221Z,927.56
2018-12-09T10:24:57.024Z,927.56
2018-12-09T10:25:56.923Z,927.65
2018-12-09T10:26:56.823Z,927.57
2018-12-09T10:27:56.733Z,927.50
2018-12-09T10:28:56.647Z,927.51
2018-12-09T10:29:56.529Z,927.48
2018-12-09T10:30:56.434Z,927.57
2018-12-09T10:31:56.333Z,927.56
2018-12-09T10:32:56.229Z,927.53
2018-12-09T10:33:56.142Z,927.50
2018-12-09T10:34:56.029Z,927.49
2018-12-09T10:35:55.932Z,927.39
2018-12-09T10:36:55.835Z,927.42
2018-12-09T10:37:55.733Z,927.53
2018-12-09T10:38:55.648Z,927.47
2018-12-09T10:39:55.531Z,927.53
2018-12-09T10:40:55.435Z,927.42
2018-12-09T10:41:55.332Z,927.48
2018-12-09T10:42:55.337Z,927.46
2018-12-09T10:43:55.147Z,927.47
2018-12-09T10:44:55.045Z,927.50
2018-12-09T10:45:54.933Z,927.35
2018-12-09T10:46:54.837Z,927.47
2018-12-09T10:47:54.734Z,927.48
2018-12-09T10:48:54.758Z,927.47
2018-12-09T10:49:54.641Z,927.37
2018-12-09T10:50:54.435Z,927.46
2018-12-09T10:51:54.339Z,927.56
2018-12-09T10:52:54.237Z,927.66
2018-12-09T10:53:54.156Z,927.59
2018-12-09T10:54:54.040Z,927.64
2018-12-09T10:55:53.937Z,927.55
2018-12-09T10:56:53.935Z,927.65
2018-12-09T10:57:53.740Z,927.65
2018-12-09T10:58:53.655Z,927.61
2018-12-09T10:59:53.540Z,927.59
2018-12-09T11:00:53.439Z,927.55
2018-12-09T11:01:53.338Z,927.61
2018-12-09T11:02:53.246Z,927.65
2018-12-09T11:03:53.258Z,927.54
2018-12-09T11:04:53.041Z,927.59
2018-12-09T11:05:52.940Z,927.65
2018-12-09T11:06:52.839Z,927.69
2018-12-09T11:07:52.739Z,927.65
2018-12-09T11:08:52.659Z,927.62
2018-12-09T11:09:52.657Z,927.62
2018-12-09T11:10:52.444Z,927.58
2018-12-09T11:11:52.345Z,927.66
2018-12-09T11:12:52.246Z,927.66
2018-12-09T11:13:57.966Z,927.66
2018-12-09T11:14:52.043Z,927.76
2018-12-09T11:15:51.943Z,927.70
2018-12-09T11:16:51.844Z,927.73
2018-12-09T11:17:51.748Z,927.71
2018-12-09T11:18:51.662Z,927.69
2018-12-09T11:19:51.546Z,927.68
2018-12-09T11:20:51.450Z,927.77
2018-12-09T11:21:51.349Z,927.58
2018-12-09T11:22:51.247Z,927.71
2018-12-09T11:23:51.152Z,927.77
2018-12-09T11:24:51.064Z,927.53
2018-12-09T11:25:50.949Z,927.66
2018-12-09T11:26:50.847Z,927.67
2018-12-09T11:27:50.751Z,927.71
2018-12-09T11:28:50.656Z,927.61
2018-12-09T11:29:50.567Z,927.59
2018-12-09T11:30:50.451Z,927.81
2018-12-09T11:31:50.350Z,927.83
2018-12-09T11:32:50.254Z,927.77
2018-12-09T11:33:50.157Z,927.64
2018-12-09T11:34:50.067Z,927.78
2018-12-09T11:35:49.963Z,927.81
2018-12-09T11:36:49.853Z,927.72
2018-12-09T11:37:49.756Z,927.72
2018-12-09T11:38:49.661Z,927.79
2018-12-09T11:39:49.576Z,927.78
2018-12-09T11:40:49.460Z,927.77
2018-12-09T11:41:49.358Z,927.75
2018-12-09T11:42:49.261Z,927.82
2018-12-09T11:43:49.161Z,927.86
2018-12-09T11:44:49.073Z,927.85
2018-12-09T11:45:48.959Z,927.80
2018-12-09T11:46:48.863Z,927.79
2018-12-09T11:47:48.758Z,927.72
2018-12-09T11:48:48.659Z,927.82
2018-12-09T11:49:48.578Z,927.83
2018-12-09T11:50:48.464Z,927.81
2018-12-09T11:51:48.363Z,927.87
2018-12-09T11:52:48.262Z,927.69
2018-12-09T11:53:48.169Z,927.84
2018-12-09T11:54:48.138Z,927.79
2018-12-09T11:55:47.967Z,927.84
2018-12-09T11:56:47.864Z,927.85
2018-12-09T11:57:47.776Z,927.77
2018-12-09T11:58:47.664Z,927.88
2018-12-09T11:59:47.582Z,927.74
2018-12-09T12:00:47.467Z,927.74
2018-12-09T12:01:47.366Z,927.69
2018-12-09T12:02:47.269Z,927.73
2018-12-09T12:03:47.171Z,927.76
2018-12-09T12:04:47.092Z,927.68
2018-12-09T12:05:46.977Z,927.56
2018-12-09T12:06:47.004Z,927.70
2018-12-09T12:07:46.774Z,927.75
2018-12-09T12:08:46.672Z,927.68
2018-12-09T12:09:46.591Z,927.67
2018-12-09T12:10:46.474Z,927.68
2018-12-09T12:11:46.376Z,927.76
2018-12-09T12:12:46.277Z,927.71
2018-12-09T12:13:46.278Z,927.73
2018-12-09T12:14:46.094Z,927.77
2018-12-09T12:15:45.975Z,927.77
2018-12-09T12:16:45.887Z,927.75
2018-12-09T12:17:45.779Z,927.80
2018-12-09T12:18:45.680Z,927.70
2018-12-09T12:19:45.708Z,927.78
2018-12-09T12:20:45.478Z,927.78
2018-12-09T12:21:45.386Z,927.76
2018-12-09T12:22:45.281Z,927.80
2018-12-09T12:23:45.181Z,927.79
2018-12-09T12:24:45.101Z,927.77
2018-12-09T12:25:44.981Z,927.60
2018-12-09T12:26:44.987Z,927.71
2018-12-09T12:27:44.783Z,927.72